createdAt,value
2022-09-23T00:02:28.011Z,8.35
2022-09-23T00:05:33.292Z,10.68
2022-09-23T00:08:37.793Z,11.02
2022-09-23T00:11:41.462Z,13.27
2022-09-23T00:14:45.483Z,8.90
2022-09-23T00:17:49.224Z,9.40
2022-09-23T00:20:53.831Z,7.72
2022-09-23T00:23:57.629Z,10.77
2022-09-23T00:27:02.614Z,16.17
2022-09-23T00:30:08.466Z,15.50
2022-09-23T00:33:12.468Z,19.95
2022-09-23T00:36:17.183Z,14.00
2022-09-23T00:39:20.913Z,16.13
2022-09-23T00:42:25.655Z,16.00
2022-09-23T00:45:30.271Z,10.10
2022-09-23T00:48:34.325Z,14.07
2022-09-23T00:51:45.110Z,10.15
2022-09-23T00:54:49.707Z,12.10
2022-09-23T00:57:56.561Z,10.20
2022-09-23T01:01:02.467Z,10.18
2022-09-23T01:04:07.794Z,10.48
2022-09-23T01:07:11.786Z,7.88
2022-09-23T01:10:17.521Z,11.00
2022-09-23T01:13:27.971Z,15.18
2022-09-23T01:17:06.547Z,9.23
2022-09-23T01:20:46.491Z,11.27
2022-09-23T01:24:27.371Z,10.43
2022-09-23T01:27:52.880Z,13.63
2022-09-23T01:31:21.800Z,7.88
2022-09-23T01:34:53.257Z,7.65
2022-09-23T01:38:36.942Z,12.45
2022-09-23T01:41:50.124Z,7.93
2022-09-23T01:45:05.664Z,9.90
2022-09-23T01:48:26.749Z,10.95
2022-09-23T01:51:44.778Z,14.63
2022-09-23T01:55:17.153Z,14.40
2022-09-23T01:58:49.514Z,7.30
2022-09-23T02:02:15.704Z,10.80
2022-09-23T02:05:33.603Z,9.10
2022-09-23T02:08:43.850Z,12.05
2022-09-23T02:11:49.504Z,11.50
2022-09-23T02:15:14.038Z,9.18
2022-09-23T02:18:25.563Z,11.20
2022-09-23T02:21:35.214Z,10.55
2022-09-23T02:24:40.334Z,11.18
2022-09-23T02:27:55.303Z,10.05
2022-09-23T02:31:16.369Z,5.90
2022-09-23T02:34:54.751Z,8.65
2022-09-23T02:38:34.983Z,2.83
2022-09-23T02:41:50.587Z,2.78
2022-09-23T02:44:53.506Z,3.83
2022-09-23T02:48:06.207Z,6.25
2022-09-23T02:51:10.807Z,6.20
2022-09-23T02:54:19.875Z,3.65
2022-09-23T02:57:22.977Z,5.20
2022-09-23T03:00:36.030Z,4.85
2022-09-23T03:03:47.595Z,2.63
2022-09-23T03:07:03.525Z,5.43
2022-09-23T03:10:42.614Z,3.40
2022-09-23T03:14:18.467Z,2.38
2022-09-23T03:17:31.706Z,6.82
2022-09-23T03:20:39.294Z,9.25
2022-09-23T03:23:44.073Z,4.13
2022-09-23T03:26:49.982Z,2.65
2022-09-23T03:29:56.043Z,3.75
2022-09-23T03:33:02.251Z,4.93
2022-09-23T03:36:28.231Z,4.40
2022-09-23T03:39:43.067Z,3.67
2022-09-23T03:42:49.511Z,2.80
2022-09-23T03:45:58.903Z,4.55
2022-09-23T03:52:21.909Z,2.95
2022-09-23T03:55:25.947Z,2.63
2022-09-23T03:58:29.329Z,9.90
2022-09-23T04:01:32.752Z,3.80
2022-09-23T04:04:41.631Z,2.00
2022-09-23T04:07:45.021Z,4.47
2022-09-23T04:10:49.833Z,7.53
2022-09-23T04:13:57.728Z,4.95
2022-09-23T04:17:01.246Z,3.53
2022-09-23T04:20:05.198Z,6.00
2022-09-23T04:23:11.509Z,2.72
2022-09-23T04:26:15.275Z,3.47
2022-09-23T04:29:18.763Z,3.22
2022-09-23T04:32:22.767Z,5.55
2022-09-23T04:35:26.112Z,2.25
2022-09-23T04:38:29.875Z,7.07
2022-09-23T04:41:32.678Z,4.15
2022-09-23T04:44:35.795Z,6.40
2022-09-23T04:47:39.166Z,3.35
2022-09-23T04:50:43.057Z,4.60
2022-09-23T04:53:47.552Z,6.72
2022-09-23T04:56:50.849Z,5.32
2022-09-23T04:59:57.361Z,6.25
2022-09-23T05:06:17.528Z,3.20
2022-09-23T05:09:20.851Z,4.20
2022-09-23T05:12:23.634Z,6.53
2022-09-23T05:15:27.504Z,4.63
2022-09-23T05:18:35.202Z,4.10
2022-09-23T05:21:39.330Z,3.40
2022-09-23T05:24:42.172Z,2.28
2022-09-23T05:27:45.378Z,4.43
2022-09-23T05:30:48.172Z,4.63
2022-09-23T05:33:54.412Z,5.00
2022-09-23T05:36:58.845Z,6.28
2022-09-23T05:40:02.946Z,5.13
2022-09-23T05:43:05.803Z,1.80
2022-09-23T05:46:26.826Z,3.63
2022-09-23T05:49:55.207Z,3.95
2022-09-23T05:52:53.482Z,3.45
2022-09-23T05:55:58.064Z,4.45
2022-09-23T05:59:03.547Z,5.28
2022-09-23T06:02:09.107Z,7.73
2022-09-23T06:05:12.684Z,4.80
2022-09-23T06:08:16.309Z,5.57
2022-09-23T06:11:22.225Z,4.05
2022-09-23T06:14:25.883Z,2.53
2022-09-23T06:17:29.596Z,7.63
2022-09-23T06:20:35.804Z,4.70
2022-09-23T06:23:41.322Z,2.30
2022-09-23T06:26:45.458Z,4.60
2022-09-23T06:29:48.709Z,3.03
2022-09-23T06:32:53.051Z,4.90
2022-09-23T06:35:59.839Z,3.08
2022-09-23T06:39:03.275Z,4.25
2022-09-23T06:42:07.654Z,5.05
2022-09-23T06:45:15.473Z,4.82
2022-09-23T06:48:19.557Z,3.70
2022-09-23T06:51:23.283Z,5.30
2022-09-23T06:54:29.554Z,5.18
2022-09-23T06:57:33.967Z,5.43
2022-09-23T07:00:38.093Z,6.32
2022-09-23T07:03:41.571Z,5.03
2022-09-23T07:06:45.479Z,2.45
2022-09-23T07:09:48.335Z,2.35
2022-09-23T07:12:52.288Z,5.30
2022-09-23T07:15:58.786Z,5.50
2022-09-23T07:19:02.350Z,7.38
2022-09-23T07:22:06.116Z,9.48
2022-09-23T07:25:12.120Z,7.85
2022-09-23T07:28:15.859Z,6.30
2022-09-23T07:31:34.242Z,7.18
2022-09-23T07:34:40.549Z,5.90
2022-09-23T07:37:44.744Z,9.45
2022-09-23T07:40:48.062Z,8.25
2022-09-23T07:43:53.353Z,3.53
2022-09-23T07:46:56.470Z,5.32
2022-09-23T07:50:00.442Z,3.55
2022-09-23T07:53:04.658Z,5.68
2022-09-23T07:56:08.475Z,4.78
2022-09-23T07:59:18.717Z,5.15
2022-09-23T08:02:21.722Z,10.35
2022-09-23T08:05:26.152Z,5.15
2022-09-23T08:08:29.759Z,4.05
2022-09-23T08:11:33.352Z,5.03
2022-09-23T08:14:37.374Z,3.60
2022-09-23T08:17:40.907Z,5.03
2022-09-23T08:20:48.367Z,4.43
2022-09-23T08:23:52.278Z,8.25
2022-09-23T08:26:56.477Z,7.25
2022-09-23T08:30:00.038Z,5.53
2022-09-23T08:33:04.029Z,6.10
2022-09-23T08:36:08.519Z,6.30
2022-09-23T08:39:18.707Z,8.32
2022-09-23T08:42:32.993Z,8.30
2022-09-23T08:45:38.665Z,10.68
2022-09-23T08:48:47.703Z,8.40
2022-09-23T08:51:52.394Z,9.48
2022-09-23T08:54:57.250Z,10.13
2022-09-23T08:58:26.014Z,9.85
2022-09-23T09:01:42.186Z,9.40
2022-09-23T09:04:54.553Z,10.15
2022-09-23T09:08:01.418Z,13.45
2022-09-23T09:11:07.915Z,14.52
2022-09-23T09:14:36.074Z,11.43
2022-09-23T09:18:04.834Z,10.35
2022-09-23T09:21:17.002Z,13.57
2022-09-23T09:24:32.733Z,10.32
2022-09-23T09:27:39.945Z,12.40
2022-09-23T09:30:49.410Z,10.38
2022-09-23T09:34:07.352Z,11.35
2022-09-23T09:37:34.541Z,8.52
2022-09-23T09:40:47.950Z,13.80
2022-09-23T09:43:59.831Z,8.60
2022-09-23T09:47:31.790Z,12.32
2022-09-23T09:50:49.985Z,15.57
2022-09-23T09:53:53.721Z,15.70
2022-09-23T09:56:56.896Z,17.38
2022-09-23T10:00:37.734Z,22.73
2022-09-23T10:03:43.917Z,19.15
2022-09-23T10:07:07.440Z,18.25
2022-09-23T10:10:34.448Z,17.27
2022-09-23T10:13:38.908Z,17.98
2022-09-23T10:16:43.067Z,11.40
2022-09-23T10:19:56.600Z,17.40
2022-09-23T10:23:07.497Z,13.52
2022-09-23T10:26:13.642Z,14.32
2022-09-23T10:29:31.388Z,11.10
2022-09-23T10:32:39.590Z,16.77
2022-09-23T10:35:57.632Z,18.83
2022-09-23T10:39:24.385Z,11.57
2022-09-23T10:47:15.222Z,18.52
2022-09-23T10:50:48.388Z,20.58
2022-09-23T10:54:00.324Z,23.15
2022-09-23T10:57:41.156Z,25.77
2022-09-23T11:00:53.185Z,22.90
2022-09-23T11:04:02.392Z,23.63
2022-09-23T11:07:27.511Z,15.57
2022-09-23T11:11:07.060Z,18.52
2022-09-23T11:14:28.766Z,20.63
2022-09-23T11:17:32.764Z,19.58
2022-09-23T11:20:43.718Z,18.98
2022-09-23T11:24:00.586Z,22.40
2022-09-23T11:27:06.865Z,24.20
2022-09-23T11:30:21.241Z,34.53
2022-09-23T11:33:53.374Z,23.85
2022-09-23T11:37:29.625Z,26.88
2022-09-23T11:40:43.826Z,16.55
2022-09-23T11:43:55.472Z,17.67
2022-09-23T11:47:30.129Z,26.13
2022-09-23T11:50:48.439Z,18.83
2022-09-23T11:54:00.572Z,16.02
2022-09-23T11:57:09.110Z,51.30
2022-09-23T12:00:50.175Z,45.08
2022-09-23T12:04:21.584Z,32.17
2022-09-23T12:07:35.302Z,24.50
2022-09-23T12:10:54.310Z,31.27
2022-09-23T12:14:16.191Z,54.63
2022-09-23T12:17:27.743Z,46.25
2022-09-23T12:20:47.840Z,58.03
2022-09-23T12:24:06.212Z,33.30
2022-09-23T12:27:24.730Z,17.67
2022-09-23T12:30:33.329Z,24.75
2022-09-23T12:33:37.883Z,29.83
2022-09-23T12:36:41.807Z,22.33
2022-09-23T12:39:47.472Z,28.08
2022-09-23T12:42:52.658Z,25.53
2022-09-23T12:46:20.026Z,21.95
2022-09-23T12:49:26.425Z,22.50
2022-09-23T12:52:33.183Z,19.92
2022-09-23T12:55:37.036Z,20.48
2022-09-23T12:58:43.913Z,21.65
2022-09-23T13:02:09.727Z,21.60
2022-09-23T13:05:42.803Z,17.73
2022-09-23T13:08:48.512Z,19.60
2022-09-23T13:11:54.217Z,22.00
2022-09-23T13:15:05.500Z,14.15
2022-09-23T13:18:21.495Z,15.27
2022-09-23T13:21:45.641Z,18.45
2022-09-23T13:24:54.684Z,13.77
2022-09-23T13:28:02.279Z,17.40
2022-09-23T13:31:07.933Z,16.27
2022-09-23T13:34:16.394Z,17.88
2022-09-23T13:37:26.288Z,15.50
2022-09-23T13:40:30.487Z,20.55
2022-09-23T13:43:43.100Z,15.32
2022-09-23T13:46:52.522Z,15.13
2022-09-23T13:49:56.563Z,13.40
2022-09-23T13:53:10.160Z,12.35
2022-09-23T13:56:15.336Z,12.43
2022-09-23T13:59:29.253Z,11.88
2022-09-23T14:02:33.038Z,7.57
2022-09-23T14:05:39.732Z,7.50
2022-09-23T14:08:47.809Z,10.93
2022-09-23T14:11:52.813Z,6.28
2022-09-23T14:14:57.683Z,13.73
2022-09-23T14:18:07.558Z,14.75
2022-09-23T14:21:34.365Z,19.05
2022-09-23T14:24:39.149Z,13.98
2022-09-23T14:27:44.394Z,8.10
2022-09-23T14:30:49.782Z,5.68
2022-09-23T14:33:53.523Z,9.68
2022-09-23T14:37:15.898Z,6.28
2022-09-23T14:40:28.505Z,3.28
2022-09-23T14:43:32.382Z,5.10
2022-09-23T14:46:40.680Z,6.20
2022-09-23T14:50:09.341Z,5.43
2022-09-23T14:53:25.447Z,9.25
2022-09-23T14:56:41.600Z,6.07
2022-09-23T15:00:00.642Z,4.78
2022-09-23T15:03:05.530Z,5.15
2022-09-23T15:06:10.195Z,6.95
2022-09-23T15:09:52.224Z,3.55
2022-09-23T15:13:22.932Z,3.28
2022-09-23T15:16:28.589Z,6.13
2022-09-23T15:19:35.365Z,5.43
2022-09-23T15:22:54.330Z,6.10
2022-09-23T15:25:58.030Z,5.75
2022-09-23T15:29:02.493Z,8.52
2022-09-23T15:32:09.397Z,8.13
2022-09-23T15:35:19.148Z,7.30
2022-09-23T15:38:23.389Z,6.20
2022-09-23T15:41:26.910Z,7.90
2022-09-23T15:44:30.552Z,7.40
2022-09-23T15:47:34.128Z,8.60
2022-09-23T15:50:39.261Z,9.05
2022-09-23T15:53:43.063Z,9.63
2022-09-23T15:56:46.590Z,8.38
2022-09-23T15:59:50.254Z,8.68
2022-09-23T16:02:55.085Z,6.65
2022-09-23T16:06:03.721Z,6.68
2022-09-23T16:09:06.953Z,9.82
2022-09-23T16:12:12.769Z,7.70
2022-09-23T16:15:19.889Z,7.78
2022-09-23T16:18:23.445Z,6.47
2022-09-23T16:21:29.519Z,7.65
2022-09-23T16:24:33.375Z,7.43
2022-09-23T16:27:37.329Z,6.38
2022-09-23T16:30:40.344Z,5.22
2022-09-23T16:33:48.019Z,7.97
2022-09-23T16:36:50.980Z,6.07
2022-09-23T16:39:55.959Z,5.38
2022-09-23T16:43:02.751Z,6.68
2022-09-23T16:46:08.097Z,9.23
2022-09-23T16:49:14.770Z,5.93
2022-09-23T16:52:18.839Z,6.22
2022-09-23T16:55:22.516Z,6.38
2022-09-23T16:58:27.470Z,8.02
2022-09-23T17:01:50.020Z,6.05
2022-09-23T17:04:54.079Z,5.68
2022-09-23T17:07:58.119Z,4.88
2022-09-23T17:11:02.508Z,5.00
2022-09-23T17:14:07.014Z,5.00
2022-09-23T17:17:11.550Z,5.15
2022-09-23T17:20:15.132Z,5.65
2022-09-23T17:23:20.513Z,7.47
2022-09-23T17:26:26.136Z,6.35
2022-09-23T17:29:31.037Z,7.95
2022-09-23T17:32:34.483Z,7.43
2022-09-23T17:35:44.088Z,7.47
2022-09-23T17:38:53.900Z,6.10
2022-09-23T17:41:59.352Z,7.07
2022-09-23T17:45:03.071Z,6.78
2022-09-23T17:48:06.985Z,9.45
2022-09-23T17:51:20.262Z,6.88
2022-09-23T17:54:24.387Z,5.93
2022-09-23T17:57:27.654Z,7.07
2022-09-23T18:00:31.662Z,5.72
2022-09-23T18:03:35.280Z,9.18
2022-09-23T18:06:39.274Z,8.60
2022-09-23T18:09:42.919Z,6.15
2022-09-23T18:12:46.578Z,7.35
2022-09-23T18:15:50.423Z,7.60
2022-09-23T18:19:00.007Z,6.47
2022-09-23T18:22:03.705Z,6.70
2022-09-23T18:25:28.621Z,4.30
2022-09-23T18:28:34.866Z,4.97
2022-09-23T18:31:39.878Z,6.65
2022-09-23T18:34:43.763Z,5.90
2022-09-23T18:37:47.846Z,5.13
2022-09-23T18:40:56.800Z,5.50
2022-09-23T18:44:01.018Z,9.05
2022-09-23T18:47:04.813Z,4.43
2022-09-23T18:50:30.354Z,6.25
2022-09-23T18:53:34.942Z,5.85
2022-09-23T18:56:43.830Z,5.78
2022-09-23T18:59:47.895Z,5.65
2022-09-23T19:02:53.283Z,6.55
2022-09-23T19:06:02.746Z,4.88
2022-09-23T19:09:08.007Z,5.05
2022-09-23T19:12:11.738Z,4.85
2022-09-23T19:15:15.984Z,4.75
2022-09-23T19:18:21.566Z,5.00
2022-09-23T19:21:25.228Z,4.90
2022-09-23T19:24:28.931Z,6.25
2022-09-23T19:27:34.105Z,4.60
2022-09-23T19:30:39.376Z,5.45
2022-09-23T19:33:47.365Z,5.55
2022-09-23T19:37:00.250Z,5.63
2022-09-23T19:40:04.191Z,6.03
2022-09-23T19:43:07.107Z,7.10
2022-09-23T19:46:11.033Z,4.93
2022-09-23T19:49:14.646Z,5.43
2022-09-23T19:52:18.735Z,5.65
2022-09-23T19:55:22.313Z,7.75
2022-09-23T19:58:27.164Z,4.30
2022-09-23T20:01:32.365Z,6.57
2022-09-23T20:04:36.532Z,8.93
2022-09-23T20:07:42.022Z,5.10
2022-09-23T20:10:47.840Z,5.30
2022-09-23T20:14:01.423Z,7.32
2022-09-23T20:17:05.576Z,4.45
2022-09-23T20:20:10.901Z,6.50
2022-09-23T20:23:14.956Z,8.13
2022-09-23T20:26:37.230Z,4.20
2022-09-23T20:29:40.969Z,5.32
2022-09-23T20:32:44.979Z,5.57
2022-09-23T20:35:52.381Z,6.95
2022-09-23T20:39:01.203Z,6.53
2022-09-23T20:42:05.527Z,6.13
2022-09-23T20:45:09.860Z,5.25
2022-09-23T20:48:13.872Z,6.00
2022-09-23T20:51:18.307Z,5.60
2022-09-23T20:54:23.260Z,5.25
2022-09-23T20:57:28.193Z,4.90
2022-09-23T21:00:32.460Z,5.35
2022-09-23T21:03:36.121Z,6.90
2022-09-23T21:06:40.621Z,5.28
2022-09-23T21:09:44.230Z,7.25
2022-09-23T21:12:51.378Z,6.30
2022-09-23T21:15:55.526Z,8.35
2022-09-23T21:19:00.227Z,6.25
2022-09-23T21:22:03.764Z,7.28
2022-09-23T21:28:36.361Z,5.72
2022-09-23T21:31:40.860Z,5.65
2022-09-23T21:34:44.127Z,6.68
2022-09-23T21:37:47.994Z,6.40
2022-09-23T21:40:59.565Z,6.22
2022-09-23T21:44:05.187Z,7.20
2022-09-23T21:47:08.893Z,4.78
2022-09-23T21:50:12.843Z,6.63
2022-09-23T21:53:17.356Z,4.40
2022-09-23T21:56:29.600Z,5.45
2022-09-23T21:59:34.437Z,4.18
2022-09-23T22:02:40.371Z,6.65
2022-09-23T22:05:44.611Z,6.40
2022-09-23T22:08:54.320Z,5.65
2022-09-23T22:12:08.366Z,5.97
2022-09-23T22:15:12.413Z,5.05
2022-09-23T22:18:16.054Z,5.57
2022-09-23T22:21:22.928Z,3.90
2022-09-23T22:24:26.125Z,5.33
2022-09-23T22:27:30.732Z,5.82
2022-09-23T22:30:52.638Z,5.30
2022-09-23T22:33:56.554Z,5.65
2022-09-23T22:37:01.193Z,8.30
2022-09-23T22:40:10.497Z,7.43
2022-09-23T22:43:14.553Z,4.75
2022-09-23T22:46:22.512Z,5.07
2022-09-23T22:49:26.914Z,5.32
2022-09-23T22:52:30.560Z,6.20
2022-09-23T22:55:34.163Z,5.28
2022-09-23T22:58:38.410Z,6.45
2022-09-23T23:01:44.347Z,7.10
2022-09-23T23:04:49.092Z,8.48
2022-09-23T23:07:53.902Z,12.60
2022-09-23T23:11:23.573Z,8.48
2022-09-23T23:14:30.602Z,8.27
2022-09-23T23:17:47.413Z,7.30
2022-09-23T23:20:54.758Z,10.70
2022-09-23T23:24:02.122Z,8.43
2022-09-23T23:27:15.967Z,7.47
2022-09-23T23:30:19.466Z,9.18
2022-09-23T23:33:32.560Z,5.53
2022-09-23T23:36:52.339Z,7.85
2022-09-23T23:40:02.747Z,4.07
2022-09-23T23:43:06.342Z,5.68
2022-09-23T23:46:10.990Z,3.40
2022-09-23T23:49:15.019Z,3.35
2022-09-23T23:52:18.854Z,2.60
2022-09-23T23:55:22.553Z,5.32
2022-09-23T23:58:28.889Z,1.80
